Terminal Aerodrome Forecast
Issued by NWS Sioux Falls, SD

Home | Current Version | Previous Version | Text Only | Print | Product List | Glossary Off
Versions: 1 2 3 4 5 6 7 8 9 10 11 12 13 14 15 16 17 18 19 20

000
FTUS43 KFSD 210524
TAFFSD
TAF
KFSD 210524Z 2106/2206 VRB03KT P6SM SKC
      TEMPO 2109/2112 4SM BR
     FM211500 20007KT P6SM FEW250
     FM211900 22011KT P6SM FEW250=

USA.gov is the U.S. government's official web portal to all federal, state and local government web resources and services.